Valley Center, California
Current Conditions -  °F | °C
As of 10:53 AM on Sunday 23 Nov 2014 (Local Time) from KRNM Reporting Station
Clear Clear  
Wind Chill: 67°   Ceiling: Unl
Heat Index: 67°   Visibility: 10mi
Dew Point: 42°   Wind: 3mph
Humidity: 40%   Direction: 310°NW
Pressure: 30.1"   Gusts: NA
Location:  33.22°N, 117.04°W
Report Text: KRNM 231853Z 31003KT 10SM CLR 19/06 A3010 RMK AO2 SLP187 T01940056 $
Loading
Personal Weather Stations






























Interactive Weather Map New forecast layout! Learn more

10-Day Weather Forecast

Advertisements
Track Severe Weather on mobile